createdAt,value
2017-11-27T00:00:58.001Z,57.50
2017-11-27T00:03:26.688Z,57.40
2017-11-27T00:05:55.596Z,57.40
2017-11-27T00:08:24.665Z,57.40
2017-11-27T00:10:53.534Z,57.20
2017-11-27T00:13:22.354Z,57.20
2017-11-27T00:15:52.492Z,56.70
2017-11-27T00:18:21.788Z,56.70
2017-11-27T00:20:50.720Z,56.50
2017-11-27T00:23:19.465Z,56.70
2017-11-27T00:25:49.353Z,56.60
2017-11-27T00:28:18.211Z,56.60
2017-11-27T00:30:47.026Z,56.40
2017-11-27T00:33:15.941Z,56.60
2017-11-27T00:35:44.783Z,56.80
2017-11-27T00:38:19.705Z,56.40
2017-11-27T00:40:55.055Z,56.60
2017-11-27T00:43:23.807Z,56.50
2017-11-27T00:45:52.545Z,56.50
2017-11-27T00:48:21.572Z,56.00
2017-11-27T00:50:57.389Z,56.40
2017-11-27T00:53:26.443Z,56.40
2017-11-27T00:55:55.430Z,56.50
2017-11-27T00:58:27.607Z,56.60
2017-11-27T01:00:56.346Z,56.60
2017-11-27T01:03:25.276Z,56.50
2017-11-27T01:06:00.275Z,56.40
2017-11-27T01:08:29.104Z,56.30
2017-11-27T01:10:57.957Z,56.30
2017-11-27T01:13:32.899Z,57.10
2017-11-27T01:16:01.565Z,56.30
2017-11-27T01:18:30.580Z,56.40
2017-11-27T01:21:00.105Z,55.80
2017-11-27T01:23:28.790Z,55.60
2017-11-27T01:25:57.476Z,55.60
2017-11-27T01:28:32.389Z,55.70
2017-11-27T01:31:01.095Z,55.70
2017-11-27T01:33:29.756Z,55.60
2017-11-27T01:35:58.432Z,55.70
2017-11-27T01:38:27.122Z,55.70
2017-11-27T01:40:55.795Z,55.60
2017-11-27T01:43:24.466Z,55.50
2017-11-27T01:45:59.389Z,55.40
2017-11-27T01:48:28.065Z,55.40
2017-11-27T01:51:02.838Z,55.00
2017-11-27T01:53:31.518Z,55.20
2017-11-27T01:56:00.181Z,55.10
2017-11-27T01:58:28.901Z,55.20
2017-11-27T02:01:04.532Z,55.20
2017-11-27T02:03:33.217Z,55.20
2017-11-27T02:06:01.913Z,55.70
2017-11-27T02:08:30.588Z,56.10
2017-11-27T02:11:05.420Z,56.10
2017-11-27T02:13:40.247Z,56.20
2017-11-27T02:16:10.585Z,55.80
2017-11-27T02:18:42.124Z,55.80
2017-11-27T02:21:12.672Z,55.50
2017-11-27T02:23:48.516Z,55.50
2017-11-27T02:26:17.198Z,55.70
2017-11-27T02:28:52.117Z,55.30
2017-11-27T02:31:20.817Z,55.30
2017-11-27T02:33:49.510Z,55.60
2017-11-27T02:36:24.477Z,55.30
2017-11-27T02:38:54.112Z,55.50
2017-11-27T02:41:22.810Z,55.20
2017-11-27T02:43:51.488Z,55.30
2017-11-27T02:46:20.152Z,55.20
2017-11-27T02:48:49.608Z,55.10
2017-11-27T02:51:18.297Z,55.10
2017-11-27T02:53:46.981Z,54.90
2017-11-27T02:56:21.780Z,54.90
2017-11-27T02:58:56.716Z,54.70
2017-11-27T03:01:26.268Z,54.60
2017-11-27T03:03:54.949Z,54.60
2017-11-27T03:06:23.617Z,54.70
2017-11-27T03:08:52.285Z,54.80
2017-11-27T03:11:20.965Z,54.50
2017-11-27T03:13:53.713Z,54.60
2017-11-27T03:16:23.159Z,54.00
2017-11-27T03:19:02.607Z,53.90
2017-11-27T03:21:32.295Z,54.20
2017-11-27T03:24:00.952Z,54.10
2017-11-27T03:26:35.888Z,54.20
2017-11-27T03:29:10.724Z,53.90
2017-11-27T03:31:39.403Z,54.10
2017-11-27T03:34:08.846Z,54.10
2017-11-27T03:36:37.557Z,54.10
2017-11-27T03:39:06.225Z,54.20
2017-11-27T03:41:34.910Z,54.40
2017-11-27T03:44:03.585Z,54.30
2017-11-27T03:46:32.260Z,53.80
2017-11-27T03:49:07.823Z,53.90
2017-11-27T03:51:38.653Z,53.80
2017-11-27T03:54:07.480Z,53.80
2017-11-27T03:56:37.130Z,53.70
2017-11-27T03:59:06.564Z,53.70
2017-11-27T04:01:35.234Z,53.60
2017-11-27T04:04:03.900Z,53.80
2017-11-27T04:06:32.575Z,53.90
2017-11-27T04:09:01.254Z,53.90
2017-11-27T04:11:31.625Z,54.00
2017-11-27T04:14:00.312Z,53.80
2017-11-27T04:16:28.995Z,54.20
2017-11-27T04:18:58.485Z,54.10
2017-11-27T04:21:27.152Z,54.00
2017-11-27T04:23:55.833Z,53.90
2017-11-27T04:26:30.764Z,54.00
2017-11-27T04:29:00.195Z,53.80
2017-11-27T04:31:28.865Z,53.80
2017-11-27T04:33:57.580Z,54.00
2017-11-27T04:36:26.255Z,54.00
2017-11-27T04:38:54.937Z,54.10
2017-11-27T04:41:23.621Z,54.20
2017-11-27T04:43:53.161Z,54.30
2017-11-27T04:46:21.832Z,54.40
2017-11-27T04:48:50.532Z,54.50
2017-11-27T04:51:19.213Z,54.60
2017-11-27T04:53:47.881Z,54.80
2017-11-27T04:56:22.810Z,55.20
2017-11-27T04:58:51.747Z,55.30
2017-11-27T05:01:21.206Z,56.10
2017-11-27T05:03:49.882Z,56.00
2017-11-27T05:06:24.633Z,56.40
2017-11-27T05:08:53.301Z,56.50
2017-11-27T05:11:28.169Z,56.50
2017-11-27T05:14:02.947Z,56.50
2017-11-27T05:16:37.880Z,56.40
2017-11-27T05:19:12.813Z,56.40
2017-11-27T05:21:41.497Z,56.40
2017-11-27T05:24:10.163Z,56.50
2017-11-27T05:26:38.877Z,55.90
2017-11-27T05:29:07.562Z,55.40
2017-11-27T05:31:36.221Z,55.20
2017-11-27T05:34:04.909Z,55.20
2017-11-27T05:36:33.575Z,54.70
2017-11-27T05:39:03.018Z,54.50
2017-11-27T05:41:31.688Z,54.50
2017-11-27T05:44:00.368Z,54.20
2017-11-27T05:46:29.040Z,54.20
2017-11-27T05:48:58.529Z,53.70
2017-11-27T05:51:28.203Z,53.60
2017-11-27T05:53:56.872Z,53.20
2017-11-27T05:56:25.558Z,53.50
2017-11-27T05:58:55.174Z,53.60
2017-11-27T06:01:23.859Z,53.50
2017-11-27T06:03:52.535Z,53.60
2017-11-27T06:06:21.216Z,53.60
2017-11-27T06:08:49.903Z,53.80
2017-11-27T06:11:25.834Z,53.90
2017-11-27T06:14:01.683Z,53.90
2017-11-27T06:16:31.409Z,53.60
2017-11-27T06:19:06.321Z,53.50
2017-11-27T06:21:36.174Z,53.50
2017-11-27T06:24:06.037Z,53.50
2017-11-27T06:26:34.941Z,53.30
2017-11-27T06:29:09.824Z,53.20
2017-11-27T06:31:44.736Z,53.30
2017-11-27T06:34:13.410Z,53.40
2017-11-27T06:36:48.216Z,53.30
2017-11-27T06:39:17.764Z,53.20
2017-11-27T06:41:46.436Z,53.20
2017-11-27T06:44:15.111Z,53.00
2017-11-27T06:46:43.792Z,53.10
2017-11-27T06:49:12.453Z,53.30
2017-11-27T06:51:41.984Z,53.20
2017-11-27T06:54:10.648Z,53.40
2017-11-27T06:56:39.330Z,52.90
2017-11-27T06:59:08.766Z,53.50
2017-11-27T07:01:43.526Z,53.40
2017-11-27T07:04:12.200Z,53.70
2017-11-27T07:06:40.873Z,53.90
2017-11-27T07:09:15.678Z,53.90
2017-11-27T07:11:44.374Z,53.70
2017-11-27T07:14:19.589Z,53.70
2017-11-27T07:16:54.492Z,53.70
2017-11-27T07:19:23.156Z,53.40
2017-11-27T07:21:58.922Z,53.50
2017-11-27T07:24:33.844Z,53.50
2017-11-27T07:27:02.532Z,53.40
2017-11-27T07:29:33.055Z,53.20
2017-11-27T07:32:02.568Z,53.30
2017-11-27T07:34:37.380Z,53.30
2017-11-27T07:37:07.701Z,52.50
2017-11-27T07:39:41.864Z,52.50
2017-11-27T07:42:11.321Z,52.90
2017-11-27T07:44:46.249Z,52.80
2017-11-27T07:47:15.773Z,53.10
2017-11-27T07:49:44.446Z,53.00
2017-11-27T07:52:13.120Z,53.30
2017-11-27T07:54:41.799Z,53.40
2017-11-27T07:57:10.472Z,53.40
2017-11-27T07:59:45.393Z,53.20
2017-11-27T08:02:14.828Z,53.20
2017-11-27T08:04:43.517Z,53.20
2017-11-27T08:07:18.417Z,52.90
2017-11-27T08:09:47.112Z,52.50
2017-11-27T08:12:15.779Z,52.30
2017-11-27T08:14:44.443Z,52.60
2017-11-27T08:17:13.124Z,52.50
2017-11-27T08:19:48.029Z,52.40
2017-11-27T08:22:16.730Z,51.40
2017-11-27T08:24:45.373Z,51.40
2017-11-27T08:27:14.044Z,51.40
2017-11-27T08:29:48.829Z,49.40
2017-11-27T08:32:23.796Z,48.10
2017-11-27T08:34:59.475Z,46.20
2017-11-27T08:37:34.446Z,46.10
2017-11-27T08:40:04.737Z,46.60
2017-11-27T08:42:39.556Z,46.60
2017-11-27T08:45:08.229Z,47.00
2017-11-27T08:47:43.196Z,47.60
2017-11-27T08:50:15.666Z,47.00
2017-11-27T08:52:44.345Z,47.00
2017-11-27T08:55:19.185Z,45.80
2017-11-27T08:57:53.986Z,45.60
2017-11-27T09:00:29.541Z,46.00
2017-11-27T09:02:58.229Z,46.00
2017-11-27T09:05:33.029Z,46.30
2017-11-27T09:08:02.501Z,46.80
2017-11-27T09:10:37.459Z,46.90
2017-11-27T09:13:12.360Z,47.30
2017-11-27T09:15:41.031Z,47.20
2017-11-27T09:18:10.564Z,48.00
2017-11-27T09:20:39.249Z,47.90
2017-11-27T09:23:14.173Z,48.40
2017-11-27T09:25:42.860Z,49.00
2017-11-27T09:28:11.524Z,48.80
2017-11-27T09:30:40.201Z,49.00
2017-11-27T09:33:15.139Z,49.30
2017-11-27T09:35:43.821Z,48.90
2017-11-27T09:38:12.489Z,49.70
2017-11-27T09:40:41.165Z,49.00
2017-11-27T09:43:10.699Z,48.60
2017-11-27T09:45:39.385Z,47.60
2017-11-27T09:48:08.063Z,47.70
2017-11-27T09:50:42.862Z,47.90
2017-11-27T09:53:17.744Z,47.40
2017-11-27T09:55:52.682Z,46.80
2017-11-27T09:58:27.468Z,44.30
2017-11-27T10:01:03.141Z,39.90
2017-11-27T10:03:31.829Z,39.90
2017-11-27T10:06:00.509Z,39.40
2017-11-27T10:08:29.196Z,39.70
2017-11-27T10:10:57.878Z,36.30
2017-11-27T10:13:26.593Z,34.70
2017-11-27T10:15:55.272Z,32.90
2017-11-27T10:18:24.000Z,30.60
2017-11-27T10:20:53.675Z,30.40
2017-11-27T10:23:22.353Z,30.20
2017-11-27T10:25:57.262Z,29.50
2017-11-27T10:28:25.943Z,29.90
2017-11-27T10:30:54.622Z,30.60
2017-11-27T10:33:23.313Z,30.00
2017-11-27T10:35:51.993Z,28.10
2017-11-27T10:38:26.936Z,26.90
2017-11-27T10:40:55.612Z,26.20
2017-11-27T10:43:30.442Z,24.50
2017-11-27T10:45:59.972Z,23.70
2017-11-27T10:48:28.652Z,21.50
2017-11-27T10:50:57.339Z,20.80
2017-11-27T10:53:26.029Z,19.70
2017-11-27T10:55:54.704Z,20.00
2017-11-27T10:58:29.649Z,20.90
2017-11-27T11:01:03.868Z,22.50
2017-11-27T11:03:32.547Z,24.60
2017-11-27T11:06:07.532Z,26.30
2017-11-27T11:08:42.324Z,28.40
2017-11-27T11:11:17.180Z,30.40
2017-11-27T11:13:46.631Z,32.70
2017-11-27T11:16:15.317Z,32.70
2017-11-27T11:18:50.145Z,33.70
2017-11-27T11:21:25.093Z,31.10
2017-11-27T11:23:53.772Z,28.40
2017-11-27T11:26:28.733Z,26.20
2017-11-27T11:29:03.495Z,25.60
2017-11-27T11:31:37.252Z,27.00
2017-11-27T11:34:05.965Z,27.90
2017-11-27T11:36:40.912Z,29.40
2017-11-27T11:39:10.353Z,31.50
2017-11-27T11:41:45.182Z,31.60
2017-11-27T11:44:19.972Z,32.50
2017-11-27T11:46:48.680Z,33.00
2017-11-27T11:49:23.505Z,32.70
2017-11-27T11:51:52.189Z,33.00
2017-11-27T11:54:21.307Z,33.00
2017-11-27T11:56:58.355Z,33.90
2017-11-27T11:59:27.781Z,35.20
2017-11-27T12:02:02.701Z,35.20
2017-11-27T12:04:31.452Z,35.80
2017-11-27T12:07:06.640Z,36.70
2017-11-27T12:09:41.679Z,37.70
2017-11-27T12:12:10.454Z,37.70
2017-11-27T12:14:39.226Z,38.30
2017-11-27T12:17:08.903Z,39.40
2017-11-27T12:19:38.462Z,39.60
2017-11-27T12:22:13.561Z,40.70
2017-11-27T12:24:42.305Z,40.90
2017-11-27T12:27:11.860Z,41.40
2017-11-27T12:29:40.741Z,41.40
2017-11-27T12:32:09.424Z,42.30
2017-11-27T12:34:44.349Z,42.30
2017-11-27T12:37:13.041Z,42.50
2017-11-27T12:39:48.730Z,42.20
2017-11-27T12:42:17.420Z,42.40
2017-11-27T12:44:52.301Z,42.60
2017-11-27T12:47:27.208Z,42.60
2017-11-27T12:49:56.898Z,43.00
2017-11-27T12:52:31.718Z,42.90
2017-11-27T12:55:00.458Z,43.50
2017-11-27T12:57:29.912Z,42.50
2017-11-27T12:59:58.664Z,42.50
2017-11-27T13:02:34.236Z,43.20
2017-11-27T13:05:09.435Z,43.10
2017-11-27T13:07:45.112Z,44.40
2017-11-27T13:10:13.928Z,44.40
2017-11-27T13:12:42.568Z,45.10
2017-11-27T13:15:17.501Z,46.70
2017-11-27T13:17:47.057Z,47.80
2017-11-27T13:20:15.740Z,48.40
2017-11-27T13:22:50.513Z,49.00
2017-11-27T13:25:19.196Z,49.20
2017-11-27T13:27:56.119Z,49.70
2017-11-27T13:30:24.808Z,49.60
2017-11-27T13:32:53.516Z,49.80
2017-11-27T13:35:28.454Z,49.40
2017-11-27T13:37:57.148Z,50.20
2017-11-27T13:40:27.559Z,49.70
2017-11-27T13:42:56.241Z,49.60
2017-11-27T13:45:24.924Z,49.40
2017-11-27T13:47:53.604Z,49.40
2017-11-27T13:50:28.542Z,49.20
2017-11-27T13:53:04.058Z,48.90
2017-11-27T13:55:32.734Z,48.90
2017-11-27T13:58:01.414Z,48.00
2017-11-27T14:00:30.097Z,47.50
2017-11-27T14:03:05.045Z,47.20
2017-11-27T14:05:33.741Z,47.40
2017-11-27T14:08:02.409Z,47.90
2017-11-27T14:10:31.114Z,48.20
2017-11-27T14:13:00.712Z,48.20
2017-11-27T14:15:35.621Z,48.50
2017-11-27T14:18:10.579Z,48.00
2017-11-27T14:20:45.424Z,48.20
2017-11-27T14:23:14.105Z,47.90
2017-11-27T14:25:42.785Z,47.80
2017-11-27T14:28:11.474Z,47.90
2017-11-27T14:30:46.407Z,48.10
2017-11-27T14:33:15.090Z,48.90
2017-11-27T14:35:43.775Z,49.30
2017-11-27T14:38:18.717Z,49.70
2017-11-27T14:40:48.280Z,50.00
2017-11-27T14:43:16.968Z,50.20
2017-11-27T14:45:45.639Z,50.20
2017-11-27T14:48:20.476Z,50.40
2017-11-27T14:50:55.237Z,50.80
2017-11-27T14:53:30.188Z,51.20
2017-11-27T14:56:05.022Z,51.60
2017-11-27T14:58:33.745Z,52.10
2017-11-27T15:01:03.278Z,52.70
2017-11-27T15:03:38.282Z,52.90
2017-11-27T15:06:13.070Z,53.50
2017-11-27T15:08:46.886Z,53.90
2017-11-27T15:11:21.809Z,54.20
2017-11-27T15:13:56.601Z,54.50
2017-11-27T15:16:31.528Z,54.60
2017-11-27T15:19:06.650Z,55.10
2017-11-27T15:21:36.083Z,55.80
2017-11-27T15:24:11.020Z,55.70
2017-11-27T15:26:46.550Z,56.30
2017-11-27T15:29:21.489Z,56.30
2017-11-27T15:31:50.156Z,56.50
2017-11-27T15:34:25.762Z,56.90
2017-11-27T15:36:54.448Z,56.90
2017-11-27T15:39:26.179Z,56.90
2017-11-27T15:41:54.861Z,56.70
2017-11-27T15:44:23.532Z,57.00
2017-11-27T15:46:58.391Z,57.30
2017-11-27T15:49:33.169Z,57.40
2017-11-27T15:52:02.627Z,57.70
2017-11-27T15:54:37.501Z,57.60
2017-11-27T15:57:06.201Z,57.60
2017-11-27T15:59:34.930Z,57.70
2017-11-27T16:02:10.695Z,57.60
2017-11-27T16:04:39.430Z,57.50
2017-11-27T16:07:08.181Z,57.60
2017-11-27T16:09:43.154Z,57.80
2017-11-27T16:12:13.601Z,58.80
2017-11-27T16:14:48.630Z,58.10
2017-11-27T16:17:17.549Z,58.40
2017-11-27T16:19:52.434Z,58.40
2017-11-27T16:22:21.120Z,58.20
2017-11-27T16:24:49.795Z,58.20
2017-11-27T16:27:18.472Z,58.20
2017-11-27T16:29:48.336Z,58.50
2017-11-27T16:32:17.077Z,58.40
2017-11-27T16:34:45.764Z,58.50
2017-11-27T16:37:14.520Z,58.40
2017-11-27T16:39:50.338Z,58.80
2017-11-27T16:42:19.021Z,58.80
2017-11-27T16:44:48.769Z,58.80
2017-11-27T16:47:23.716Z,58.70
2017-11-27T16:49:58.557Z,58.60
2017-11-27T16:52:28.196Z,58.50
2017-11-27T16:55:03.078Z,58.60
2017-11-27T16:57:37.831Z,58.80
2017-11-27T17:00:12.707Z,58.70
2017-11-27T17:02:41.374Z,58.60
2017-11-27T17:05:10.117Z,59.00
2017-11-27T17:07:39.062Z,58.90
2017-11-27T17:10:07.728Z,58.90
2017-11-27T17:12:43.381Z,59.00
2017-11-27T17:15:12.052Z,59.00
2017-11-27T17:17:40.726Z,59.40
2017-11-27T17:20:09.401Z,59.40
2017-11-27T17:22:44.194Z,59.90
2017-11-27T17:25:12.865Z,59.60
2017-11-27T17:27:48.607Z,60.00
2017-11-27T17:30:17.287Z,60.00
2017-11-27T17:32:52.847Z,60.60
2017-11-27T17:35:27.748Z,60.50
2017-11-27T17:37:56.459Z,60.70
2017-11-27T17:40:25.141Z,60.70
2017-11-27T17:42:54.933Z,60.70
2017-11-27T17:45:27.364Z,61.00
2017-11-27T17:50:41.367Z,61.10
2017-11-27T17:53:14.562Z,61.70
2017-11-27T17:55:56.916Z,62.00
2017-11-27T17:58:29.068Z,61.90
2017-11-27T18:01:07.584Z,62.00
2017-11-27T18:03:41.114Z,61.60
2017-11-27T18:06:18.596Z,61.70
2017-11-27T18:08:52.056Z,61.50
2017-11-27T18:11:22.807Z,61.60
2017-11-27T18:13:59.708Z,61.20
2017-11-27T18:16:35.440Z,61.50
2017-11-27T18:19:14.206Z,61.80
2017-11-27T18:21:45.655Z,61.90
2017-11-27T18:24:16.333Z,61.90
2017-11-27T18:26:47.909Z,62.00
2017-11-27T18:29:18.709Z,62.00
2017-11-27T18:31:53.853Z,61.80
2017-11-27T18:34:24.840Z,62.40
2017-11-27T18:37:00.677Z,62.60
2017-11-27T18:39:35.534Z,62.60
2017-11-27T18:42:07.318Z,62.60
2017-11-27T18:47:16.459Z,62.50
2017-11-27T18:49:46.224Z,62.50
2017-11-27T18:52:21.872Z,62.60
2017-11-27T18:54:54.811Z,63.00
2017-11-27T18:57:31.310Z,63.10
2017-11-27T19:00:02.672Z,63.20
2017-11-27T19:02:31.889Z,63.20
2017-11-27T19:05:00.940Z,63.10
2017-11-27T19:10:41.146Z,63.20
2017-11-27T19:13:14.044Z,63.30
2017-11-27T19:15:59.452Z,63.40
2017-11-27T19:18:28.136Z,63.40
2017-11-27T19:20:58.539Z,63.60
2017-11-27T19:23:33.388Z,63.70
2017-11-27T19:26:13.729Z,63.70
2017-11-27T19:29:00.809Z,63.60
2017-11-27T19:31:57.442Z,63.50
2017-11-27T19:34:30.609Z,63.60
2017-11-27T19:36:59.460Z,63.70
2017-11-27T19:42:34.611Z,63.80
2017-11-27T19:45:13.676Z,63.80
2017-11-27T19:47:49.228Z,63.70
2017-11-27T19:50:17.937Z,63.70
2017-11-27T19:52:46.628Z,63.80
2017-11-27T19:55:21.551Z,63.80
2017-11-27T19:57:51.846Z,64.00
2017-11-27T20:00:26.696Z,64.00
2017-11-27T20:02:55.443Z,64.00
2017-11-27T20:05:24.932Z,64.20
2017-11-27T20:07:55.396Z,64.60
2017-11-27T20:10:24.134Z,64.40
2017-11-27T20:12:52.809Z,64.60
2017-11-27T20:15:21.485Z,64.60
2017-11-27T20:17:56.282Z,64.50
2017-11-27T20:20:31.832Z,64.10
2017-11-27T20:23:14.178Z,64.10
2017-11-27T20:25:50.917Z,64.00
2017-11-27T20:28:20.076Z,64.00
2017-11-27T20:30:54.936Z,64.30
2017-11-27T20:33:23.620Z,64.40
2017-11-27T20:35:52.293Z,64.40
2017-11-27T20:38:27.077Z,64.40
2017-11-27T20:40:55.743Z,64.30
2017-11-27T20:43:27.461Z,64.20
2017-11-27T20:45:59.354Z,64.40
2017-11-27T20:48:28.076Z,64.10
2017-11-27T20:51:03.127Z,64.20
2017-11-27T20:53:33.874Z,64.30
2017-11-27T20:56:06.318Z,64.30
2017-11-27T20:58:35.658Z,64.30
2017-11-27T21:01:11.799Z,64.30
2017-11-27T21:03:40.930Z,64.30
2017-11-27T21:06:10.678Z,64.20
2017-11-27T21:08:40.106Z,64.10
2017-11-27T21:11:09.873Z,64.00
2017-11-27T21:13:38.558Z,64.00
2017-11-27T21:16:07.311Z,63.90
2017-11-27T21:18:35.994Z,64.10
2017-11-27T21:21:04.728Z,64.30
2017-11-27T21:23:40.576Z,64.40
2017-11-27T21:26:15.462Z,64.30
2017-11-27T21:28:50.268Z,64.30
2017-11-27T21:31:37.713Z,64.40
2017-11-27T21:34:12.499Z,64.60
2017-11-27T21:36:49.271Z,64.50
2017-11-27T21:39:22.008Z,64.50
2017-11-27T21:41:51.462Z,64.40
2017-11-27T21:44:27.018Z,64.50
2017-11-27T21:46:55.822Z,64.30
2017-11-27T21:49:25.389Z,64.50
2017-11-27T21:52:01.949Z,65.00
2017-11-27T21:54:30.619Z,64.30
2017-11-27T21:57:06.181Z,64.60
2017-11-27T21:59:36.879Z,64.50
2017-11-27T22:02:13.019Z,64.60
2017-11-27T22:04:42.474Z,64.80
2017-11-27T22:07:11.744Z,64.60
2017-11-27T22:09:40.584Z,64.90
2017-11-27T22:12:09.285Z,64.90
2017-11-27T22:14:43.148Z,64.00
2017-11-27T22:17:18.753Z,64.50
2017-11-27T22:19:54.531Z,64.40
2017-11-27T22:22:29.910Z,64.60
2017-11-27T22:25:05.259Z,64.60
2017-11-27T22:27:34.589Z,64.60
2017-11-27T22:30:03.353Z,64.60
2017-11-27T22:32:38.789Z,64.60
2017-11-27T22:35:07.472Z,64.50
2017-11-27T22:37:36.144Z,64.60
2017-11-27T22:40:10.978Z,64.50
2017-11-27T22:42:45.799Z,64.50
2017-11-27T22:45:14.496Z,64.50
2017-11-27T22:47:43.182Z,64.60
2017-11-27T22:50:18.097Z,64.40
2017-11-27T22:52:48.598Z,64.30
2017-11-27T22:55:24.209Z,64.30
2017-11-27T22:57:56.153Z,64.50
2017-11-27T23:00:31.893Z,64.50
2017-11-27T23:03:01.953Z,64.50
2017-11-27T23:05:30.959Z,64.80
2017-11-27T23:08:00.556Z,64.30
2017-11-27T23:10:35.597Z,64.40
2017-11-27T23:13:05.442Z,64.40
2017-11-27T23:15:34.647Z,64.50
2017-11-27T23:18:03.349Z,64.60
2017-11-27T23:20:38.181Z,64.50
2017-11-27T23:23:13.009Z,64.40
2017-11-27T23:25:41.691Z,64.30
2017-11-27T23:28:10.367Z,64.50
2017-11-27T23:30:39.037Z,64.60
2017-11-27T23:33:07.713Z,64.40
2017-11-27T23:35:42.650Z,64.60
2017-11-27T23:38:11.379Z,64.50
2017-11-27T23:40:46.281Z,64.50
2017-11-27T23:43:15.836Z,64.40
2017-11-27T23:45:51.449Z,64.70
2017-11-27T23:48:21.065Z,64.60
2017-11-27T23:50:50.536Z,64.60
2017-11-27T23:53:19.245Z,64.60
2017-11-27T23:55:54.149Z,64.00
2017-11-27T23:58:22.807Z,64.40
